DW8673 Jerrabomberra AU current weather conditions

sailwx.info

Wind from 097 at 1 knots gusting 4

Air temperature 12.2° C
Dewpoint 1.2° C

Last reported at 2016-Sep-28 09:47 UTC.
Time now 2016-Sep-28 10:16 UTC

Location: S 35°23' E 149°12'.
View on Google Maps.

See reports from other nearby stations

  
Tides and Currents Weather Stations Pressure Air Temp Water Temp Dewpoint Dewpoint Depression Visibility Wind Speed Wind Dir Waves Ship Positions
date/time (UTC)wind fromknots sea level pressurealtimeterstation pressurevisibilityair tempwater tempwave heightnotes
2016-Sep-28 09:47 097 1 gusting 4 12.2
2016-Sep-28 09:42 110 1 gusting 4 12.2
2016-Sep-28 09:37 093 1 gusting 2 12.2
2016-Sep-28 09:32 075 1 gusting 4 12.2
2016-Sep-28 09:17 074 0 gusting 1 12.8
2016-Sep-28 09:12 100 1 gusting 4 12.2
2016-Sep-28 09:07 088 1 gusting 4 12.2
2016-Sep-28 09:02 090 12.2
2016-Sep-28 08:47 090 12.8
2016-Sep-28 08:42 090 12.8
2016-Sep-28 08:37 090 13.3
2016-Sep-28 08:32 090 13.3
2016-Sep-28 08:17 090 14.4
2016-Sep-28 08:12 090 14.4
2016-Sep-28 08:07 109 15.0
2016-Sep-28 08:02 088 0 gusting 1 15.0
2016-Sep-28 07:47 080 0 gusting 1 16.1
2016-Sep-28 07:42 264 0 gusting 1 17.2
2016-Sep-28 07:37 340 0 gusting 2 17.8
2016-Sep-28 07:32 302 0 gusting 4 17.8
2016-Sep-28 07:17 328 0 gusting 1 17.8
2016-Sep-28 07:12 071 0 gusting 1 17.2
2016-Sep-28 07:07 109 1 gusting 2 17.2
2016-Sep-28 07:02 068 1 gusting 5 17.2
2016-Sep-28 06:47 090 2 gusting 5 17.8
2016-Sep-28 06:42 074 0 gusting 1 18.3
2016-Sep-28 06:37 090 0 gusting 2 18.3
2016-Sep-28 06:32 122 1 gusting 6 18.9
2016-Sep-28 06:17 330 2 gusting 5 19.4
2016-Sep-28 06:12 356 2 gusting 6 19.4
2016-Sep-28 06:07 314 1 gusting 6 19.4
2016-Sep-28 06:02 249 2 gusting 6 20.0
2016-Sep-28 05:47 342 2 gusting 5 20.0
2016-Sep-28 05:42 327 2 gusting 5 20.6
2016-Sep-28 05:37 327 1 gusting 4 20.6
2016-Sep-28 05:32 347 1 gusting 4 20.6
2016-Sep-28 05:17 017 3 gusting 6 20.6
2016-Sep-28 05:12 311 4 gusting 7 20.6
2016-Sep-28 05:07 316 2 gusting 6 20.6
2016-Sep-28 05:02 305 3 gusting 6 20.6
2016-Sep-28 04:47 326 1 gusting 2 21.1
2016-Sep-28 04:42 274 2 gusting 5 20.6
2016-Sep-28 04:37 280 2 gusting 5 20.6
2016-Sep-28 04:32 288 4 gusting 6 20.0
2016-Sep-28 04:17 308 0 gusting 5 20.6
2016-Sep-28 04:12 296 3 gusting 6 20.6
2016-Sep-28 04:07 334 2 gusting 4 20.6
2016-Sep-28 04:02 302 2 gusting 5 20.6
2016-Sep-28 03:47 275 1 gusting 5 21.1
2016-Sep-28 03:42 012 1 gusting 5 21.1
2016-Sep-28 03:37 20.6
2016-Sep-28 03:32 281 1 gusting 6 20.0
2016-Sep-28 03:17 281 1 gusting 5 20.6
2016-Sep-28 03:12 256 2 gusting 5 20.6
2016-Sep-28 03:07 293 2 gusting 5 20.6
2016-Sep-28 03:02 292 4 gusting 7 20.0
2016-Sep-28 02:47 344 1 gusting 5 20.6
2016-Sep-28 02:42 256 1 gusting 4 20.6
2016-Sep-28 02:37 284 2 gusting 5 20.6
2016-Sep-28 02:32 266 2 gusting 6 20.0
2016-Sep-28 02:17 255 2 gusting 5 20.0
2016-Sep-28 02:12 319 1 gusting 5 20.0
2016-Sep-28 02:07 297 2 gusting 5 19.4
2016-Sep-28 02:02 287 2 gusting 6 19.4
2016-Sep-28 01:47 315 1 gusting 5 19.4
2016-Sep-28 01:42 033 2 gusting 4 18.9
2016-Sep-28 01:37 247 1 gusting 2 19.4
2016-Sep-28 01:32 338 3 gusting 5 18.9
2016-Sep-28 01:17 313 2 gusting 4 18.3
2016-Sep-28 01:12 302 2 gusting 5 18.9
2016-Sep-28 01:07 247 2 gusting 5 18.3
2016-Sep-28 01:02 282 2 gusting 5 18.3
2016-Sep-28 00:47 232 1 gusting 4 17.8
2016-Sep-28 00:42 275 1 gusting 2 18.3
2016-Sep-28 00:37 270 2 gusting 2 17.8
2016-Sep-28 00:32 307 2 gusting 4 17.8
2016-Sep-28 00:17 288 1 gusting 2 17.2
2016-Sep-28 00:12 118 1 gusting 2 17.2
2016-Sep-28 00:07 281 1 gusting 2 16.7
2016-Sep-28 00:02 315 1 gusting 4 16.7
2016-Sep-27 23:47 254 1 gusting 4 15.6
2016-Sep-27 23:42 227 1 gusting 2 15.6
2016-Sep-27 23:37 320 1 gusting 1 15.0
2016-Sep-27 23:32 286 0 gusting 2 15.0
2016-Sep-27 23:17 193 0 gusting 2 13.9
2016-Sep-27 23:12 270 0 gusting 2 13.9
2016-Sep-27 23:08 304 0 gusting 2 13.9
2016-Sep-27 23:02 293 1 gusting 4 13.3
2016-Sep-27 22:47 281 1 gusting 2 12.2
2016-Sep-27 22:42 248 0 gusting 2 12.2
2016-Sep-27 22:37 288 0 gusting 1 12.2
2016-Sep-27 22:32 114 0 gusting 2 11.7
2016-Sep-27 22:17 226 0 gusting 1 10.6
2016-Sep-27 22:12 248 0 gusting 1 10.6
2016-Sep-27 22:07 123 0 gusting 1 10.0
2016-Sep-27 22:02 300 0 gusting 1 9.4
2016-Sep-27 21:47 246 1 gusting 1 8.3
2016-Sep-27 21:42 235 8.3
2016-Sep-27 21:37 068 0 gusting 1 8.3
2016-Sep-27 21:32 147 8.3
2016-Sep-27 21:17 269 0 gusting 1 7.2
2016-Sep-27 21:12 240 0 gusting 0 6.7
2016-Sep-27 21:07 158 6.1
2016-Sep-27 21:02 180 5.6
2016-Sep-27 20:47 248 0 gusting 1 3.9
2016-Sep-27 20:42 020 3.3
2016-Sep-27 20:37 090 2.2
2016-Sep-27 20:32 090 1.1
2016-Sep-27 20:17 090 0.6
2016-Sep-27 20:12 090 0.6
2016-Sep-27 20:07 090 0.6
2016-Sep-27 20:02 090 0.6
2016-Sep-27 19:47 090 0.6
2016-Sep-27 19:42 090 0.6
2016-Sep-27 19:37 112 0.6
2016-Sep-27 19:32 112 0.6
2016-Sep-27 19:17 112 0.6
2016-Sep-27 19:12 112 0.6
2016-Sep-27 19:07 112 0.6
2016-Sep-27 19:02 135 0.6
2016-Sep-27 18:47 135 0.6
2016-Sep-27 18:42 135 0.6
2016-Sep-27 18:37 135 0.6
2016-Sep-27 18:32 135 0.6
2016-Sep-27 18:17 112 1.1
2016-Sep-27 18:12 112 1.1
2016-Sep-27 18:07 112 1.1
2016-Sep-27 18:02 112 1.1
2016-Sep-27 17:47 135 1.1
2016-Sep-27 17:42 135 1.1
2016-Sep-27 17:37 135 1.1
2016-Sep-27 17:32 135 1.1
2016-Sep-27 17:17 090 1.1
2016-Sep-27 17:12 158 1.1
2016-Sep-27 17:07 126 1.7
2016-Sep-27 17:02 104 1.7
2016-Sep-27 16:47 112 1.7
2016-Sep-27 16:42 112 1.7
2016-Sep-27 16:37 051 1.7
2016-Sep-27 16:32 050 1.7
2016-Sep-27 16:17 090 1.7
2016-Sep-27 16:12 090 1.7
2016-Sep-27 16:07 090 1.7
2016-Sep-27 16:02 090 1.7
2016-Sep-27 15:47 090 2.2
2016-Sep-27 15:42 090 2.2
2016-Sep-27 15:37 090 2.2
2016-Sep-27 15:32 090 2.2
2016-Sep-27 15:17 090 2.2
2016-Sep-27 15:12 090 2.2
2016-Sep-27 15:07 112 2.2
2016-Sep-27 15:02 112 2.2
2016-Sep-27 14:47 135 2.8
2016-Sep-27 14:42 144 2.8
2016-Sep-27 14:37 090 2.8
2016-Sep-27 14:32 090 2.8
2016-Sep-27 14:17 095 2.8
2016-Sep-27 14:12 090 2.8
2016-Sep-27 14:07 338 2.8
2016-Sep-27 14:02 338 2.8
2016-Sep-27 13:47 135 3.3
2016-Sep-27 13:42 135 2.8
2016-Sep-27 13:37 183 3.3
2016-Sep-27 13:32 180 3.3
2016-Sep-27 13:12 139 3.3
2016-Sep-27 13:07 136 3.3
2016-Sep-27 13:02 235 3.3
2016-Sep-27 12:47 158 3.9
2016-Sep-27 12:42 158 3.9
2016-Sep-27 12:37 202 3.9
2016-Sep-27 12:32 135 4.4
2016-Sep-27 12:17 158 5.0
2016-Sep-27 12:12 158 5.0
2016-Sep-27 12:07 153 5.0
2016-Sep-27 12:02 090 5.6
2016-Sep-27 11:47 112 5.6
2016-Sep-27 11:42 112 0 gusting 0 5.6
2016-Sep-27 11:37 090 5.6
2016-Sep-27 11:32 105 5.6
2016-Sep-27 11:17 108 0 gusting 0 6.1
2016-Sep-27 11:12 099 6.1
2016-Sep-27 11:07 130 6.1
2016-Sep-27 11:02 100 6.1
2016-Sep-27 10:47 200 0 gusting 0 6.1
2016-Sep-27 10:42 248 0 gusting 1 6.1
2016-Sep-27 10:37 258 0 gusting 1 6.7
2016-Sep-27 10:32 238 6.1
2016-Sep-27 10:17 089 6.7
2016-Sep-27 10:12 101 6.7
2016-Sep-27 10:07 085 6.7
2016-Sep-27 10:02 133 6.7
2016-Sep-27 09:47 100 7.2
2016-Sep-27 09:42 081 7.2
2016-Sep-27 09:37 114 7.8
2016-Sep-27 09:32 270 7.8
2016-Sep-27 09:17 110 7.8
2016-Sep-27 09:12 135 8.3
2016-Sep-27 09:07 175 8.3
2016-Sep-27 09:02 156 8.3
2016-Sep-27 08:47 225 0 gusting 0 8.9
2016-Sep-27 08:42 241 0 gusting 1 9.4
2016-Sep-27 08:37 252 0 gusting 1 9.4
2016-Sep-27 08:32 261 1 gusting 2 9.4
2016-Sep-27 08:17 237 1 gusting 2 10.6
2016-Sep-27 08:12 246 0 gusting 1 10.6
2016-Sep-27 08:07 255 0 gusting 1 11.1
2016-Sep-27 08:02 320 11.1
2016-Sep-27 07:47 255 0 gusting 1 13.3
2016-Sep-27 07:42 254 2 gusting 2 13.9
2016-Sep-27 07:37 245 2 gusting 4 13.9
2016-Sep-27 07:32 229 2 gusting 6 13.9
2016-Sep-27 07:17 241 2 gusting 5 13.9
2016-Sep-27 07:12 252 2 gusting 5 14.4
2016-Sep-27 07:07 284 4 gusting 6 14.4
2016-Sep-27 07:02 275 1 gusting 6 14.4
2016-Sep-27 06:47 256 4 gusting 6 13.9
2016-Sep-27 06:42 257 4 gusting 6 14.4
2016-Sep-27 06:37 260 4 gusting 6 14.4
2016-Sep-27 06:32 218 2 gusting 6 15.0
2016-Sep-27 06:17 334 1 gusting 6 15.0
2016-Sep-27 06:12 308 4 gusting 5 15.0
2016-Sep-27 06:07 253 3 gusting 6 15.0
2016-Sep-27 06:02 251 4 gusting 6 15.0
2016-Sep-27 05:47 241 1 gusting 4 14.4
2016-Sep-27 05:42 271 5 gusting 7 15.0
2016-Sep-27 05:37 288 2 gusting 6 16.1
2016-Sep-27 05:32 253 2 gusting 7 15.6
2016-Sep-27 05:17 256 4 gusting 7 16.7
2016-Sep-27 05:12 228 1 gusting 7 16.7
2016-Sep-27 05:07 252 6 gusting 8 16.7
2016-Sep-27 05:02 251 4 gusting 11 16.1
2016-Sep-27 04:47 256 5 gusting 11 16.1
2016-Sep-27 04:42 262 5 gusting 8 16.7
2016-Sep-27 04:37 235 6 gusting 10 16.1
2016-Sep-27 04:32 273 6 gusting 14 15.6
2016-Sep-27 04:17 255 5 gusting 10 13.9
2016-Sep-27 04:12 257 4 gusting 8 13.9
2016-Sep-27 04:07 257 2 gusting 5 13.9
2016-Sep-27 04:02 239 2 gusting 7 13.9
2016-Sep-27 03:47 248 6 gusting 10 14.4
2016-Sep-27 03:42 228 4 gusting 7 15.0
2016-Sep-27 03:37 257 6 gusting 8 15.0
2016-Sep-27 03:32 252 4 gusting 7 15.0
2016-Sep-27 03:17 248 4 gusting 7 14.4
2016-Sep-27 03:12 255 2 gusting 8 14.4
2016-Sep-27 03:07 244 5 gusting 10 14.4
2016-Sep-27 03:02 254 6 gusting 7 14.4
2016-Sep-27 02:47 266 5 gusting 10 14.4
2016-Sep-27 02:42 255 5 gusting 7 15.0
2016-Sep-27 02:37 250 4 gusting 8 15.6
2016-Sep-27 02:32 272 5 gusting 11 16.1
2016-Sep-27 02:17 247 5 gusting 6 16.1
2016-Sep-27 02:12 262 6 gusting 8 15.6
2016-Sep-27 02:07 294 5 gusting 8 16.7
2016-Sep-27 02:02 259 5 gusting 12 17.2
2016-Sep-27 01:47 228 4 gusting 6 16.7
2016-Sep-27 01:42 279 5 gusting 8 16.7
2016-Sep-27 01:37 263 5 gusting 11 16.7
2016-Sep-27 01:32 240 4 gusting 11 17.2
2016-Sep-27 01:17 257 4 gusting 14 15.6
2016-Sep-27 01:12 269 6 gusting 10 15.6
2016-Sep-27 01:07 261 5 gusting 11 16.1
2016-Sep-27 01:02 251 5 gusting 10 16.1
2016-Sep-27 00:47 275 6 gusting 12 15.6
2016-Sep-27 00:42 287 5 gusting 8 16.1
2016-Sep-27 00:37 210 4 gusting 7 15.6
2016-Sep-27 00:32 297 4 gusting 11 15.6
2016-Sep-27 00:17 290 4 gusting 6 15.6
2016-Sep-27 00:12 247 5 gusting 10 14.4
2016-Sep-27 00:07 302 4 gusting 10 14.4
2016-Sep-27 00:02 289 4 gusting 10 14.4
2016-Sep-26 23:47 300 4 gusting 7 14.4
2016-Sep-26 23:42 294 5 gusting 6 13.9
2016-Sep-26 23:37 284 4 gusting 8 13.9
2016-Sep-26 23:32 228 5 gusting 11 14.4
2016-Sep-26 23:17 259 5 gusting 8 13.9
2016-Sep-26 23:12 267 3 gusting 6 13.9
2016-Sep-26 23:08 322 4 gusting 8 13.3
2016-Sep-26 23:02 244 4 gusting 10 13.9
2016-Sep-26 22:47 279 4 gusting 10 12.2
2016-Sep-26 22:42 283 4 gusting 6 11.7
2016-Sep-26 22:37 295 5 gusting 7 11.1
2016-Sep-26 22:32 306 4 gusting 6 11.1
2016-Sep-26 22:17 355 2 gusting 5 10.0
2016-Sep-26 22:12 168 2 gusting 5 10.0
2016-Sep-26 22:07 314 2 gusting 6 10.0
2016-Sep-26 22:02 072 2 gusting 6 9.4
2016-Sep-26 21:47 022 1 gusting 5 8.9
2016-Sep-26 21:42 345 1 gusting 5 8.9
2016-Sep-26 21:37 085 1 gusting 6 8.9
2016-Sep-26 21:32 304 2 gusting 5 8.9
2016-Sep-26 21:17 281 1 gusting 5 7.8
2016-Sep-26 21:12 291 2 gusting 6 7.8
2016-Sep-26 21:07 7.8
2016-Sep-26 21:02 295 2 gusting 6 7.2
2016-Sep-26 20:47 295 1 gusting 5 7.2
2016-Sep-26 20:42 012 2 gusting 5 7.2
2016-Sep-26 20:37 299 2 gusting 5 7.2
2016-Sep-26 20:32 348 2 gusting 6 7.2
2016-Sep-26 20:17 079 2 gusting 5 6.7
2016-Sep-26 20:12 6.7
2016-Sep-26 20:07 235 1 gusting 2 6.7
2016-Sep-26 20:02 037 0 gusting 2 6.7
2016-Sep-26 19:47 039 0 gusting 5 6.7
2016-Sep-26 19:42 077 1 gusting 6 6.7
2016-Sep-26 19:37 002 1 gusting 5 6.7
2016-Sep-26 19:32 356 1 gusting 5 6.7
2016-Sep-26 19:17 318 0 gusting 4 6.7
2016-Sep-26 19:12 293 1 gusting 2 6.7
2016-Sep-26 19:07 352 0 gusting 2 6.7
2016-Sep-26 19:02 330 0 gusting 4 6.7
2016-Sep-26 18:47 310 1 gusting 2 6.7
2016-Sep-26 18:42 009 0 gusting 2 6.7
2016-Sep-26 18:37 005 2 gusting 2 6.7
2016-Sep-26 18:32 324 0 gusting 2 6.7
2016-Sep-26 18:17 066 6.7
2016-Sep-26 18:12 090 6.7
2016-Sep-26 18:07 052 0 gusting 0 6.7
2016-Sep-26 18:02 136 6.7
2016-Sep-26 17:47 013 6.7
2016-Sep-26 17:42 090 6.7
2016-Sep-26 17:37 090 6.7
2016-Sep-26 17:32 294 6.1
2016-Sep-26 17:17 135 6.1
2016-Sep-26 17:12 292 6.1
2016-Sep-26 17:07 292 5.6
2016-Sep-26 17:02 330 5.6
2016-Sep-26 16:47 112 5.6
2016-Sep-26 16:42 130 5.0
2016-Sep-26 16:37 135 5.0
2016-Sep-26 16:32 338 5.0
2016-Sep-26 16:17 125 5.0
2016-Sep-26 16:12 068 5.0
2016-Sep-26 16:07 090 5.0
2016-Sep-26 16:02 102 5.0
2016-Sep-26 15:47 135 5.6
2016-Sep-26 15:42 102 5.6
2016-Sep-26 15:37 101 0 gusting 0 5.6
2016-Sep-26 15:32 112 5.6
2016-Sep-26 15:17 090 5.6
2016-Sep-26 15:12 112 6.1
2016-Sep-26 15:07 112 6.1
2016-Sep-26 15:02 111 6.1
2016-Sep-26 14:47 045 6.7
2016-Sep-26 14:42 028 0 gusting 1 6.1
2016-Sep-26 14:37 090 6.1
2016-Sep-26 14:32 111 6.1
2016-Sep-26 14:17 135 6.7
2016-Sep-26 14:12 112 6.7
2016-Sep-26 14:07 069 6.7
2016-Sep-26 14:02 046 6.7
2016-Sep-26 13:47 135 6.1
2016-Sep-26 13:42 085 5.6
2016-Sep-26 13:37 056 5.6
2016-Sep-26 13:32 114 0 gusting 1 5.0
2016-Sep-26 13:12 225 0 gusting 1 4.4
2016-Sep-26 13:07 245 4.4
2016-Sep-26 13:02 314 5.0
2016-Sep-26 12:47 174 5.0
2016-Sep-26 12:42 193 5.6
2016-Sep-26 12:37 089 5.6
2016-Sep-26 12:32 202 5.6
2016-Sep-26 12:17 135 6.1
2016-Sep-26 12:12 123 6.1
2016-Sep-26 12:07 079 6.1
2016-Sep-26 12:02 135 6.1
2016-Sep-26 11:47 110 0 gusting 1 6.7
2016-Sep-26 11:42 094 6.7
2016-Sep-26 11:37 090 6.7
2016-Sep-26 11:32 112 6.7
2016-Sep-26 11:17 110 7.2
2016-Sep-26 11:12 090 7.2
2016-Sep-26 11:07 068 0 gusting 0 7.2
2016-Sep-26 11:02 191 7.2
2016-Sep-26 10:47 082 8.3
2016-Sep-26 10:42 107 8.3
2016-Sep-26 10:37 315 0 gusting 0 8.3
2016-Sep-26 10:32 285 0 gusting 5 8.3
2016-Sep-26 10:17 299 0 gusting 2 8.9
2016-Sep-26 10:12 246 1 gusting 4 8.9
2016-Sep-26 10:07 262 1 gusting 4 8.9
2016-Sep-26 10:02 247 2 gusting 6 9.4